Flight Track Log - Related Links

Times and Time Zones

All times are in EDT time to prevent confusion due to time zone crossing. See the SWA268 flight status page for this flight to view local times or setup timezone preferences in your user account.

Time Position Orientation Groundspeed Altitude Reporting Facility
EDT Latitude Longitude Course Direction KTS MPH feet Rate Location/Type
Sun 02:27:58 PM 30.1403 -97.5494 101° East 286 329 6,200  Level Houston Center
Sun 02:29:00 PM 30.1725 -97.4617 67° East 294 338 9,700 2,661 Climbing Houston Center
Sun 02:30:02 PM 30.2158 -97.3639 63° Northeast 332 382 11,700 2,032 Climbing Houston Center
Sun 02:31:04 PM 30.2672 -97.2544 61° Northeast 381 438 13,900 2,419 Climbing Houston Center
Sun 02:32:00 PM 30.0555 -96.8336 101° East  Level Estimated
Sun 02:32:06 PM 30.2592 -97.1219 94° East 414 476 16,700  Level Houston Center
Sun 02:33:00 PM 30.0318 -96.6940 101° East  Level Estimated
Sun 02:33:08 PM 30.2394 -96.9856 99° East 428 493 19,200  Level Houston Center
Sun 02:34:10 PM 30.2389 -96.8178 90° East 447 514 21,900 2,419 Climbing Houston Center
Sun 02:35:12 PM 30.2497 -96.6692 85° East 460 529 24,200 2,129 Climbing Houston Center
Sun 02:36:14 PM 30.2528 -96.5186 89° East 467 537 26,300 1,728 Climbing Houston Center
Sun 02:37:17 PM 30.2186 -96.3650 104° East 489 563 27,800 1,440 Climbing Houston Center
Sun 02:38:19 PM 30.1778 -96.2083 107° East 503 579 29,300 1,694 Climbing Houston Center
Sun 02:39:21 PM 30.1381 -96.0472 106° East 505 581 31,300 2,032 Climbing Houston Center
Sun 02:40:23 PM 30.0936 -95.8722 106° East 501 577 33,500 1,839 Climbing Houston Center
Sun 02:41:25 PM 30.0542 -95.7206 107° East 494 568 35,100 1,306 Climbing Houston Center
Sun 02:42:27 PM 30.0147 -95.5697 107° East 490 564 36,200 919 Climbing Houston Center
Sun 02:43:29 PM 29.9756 -95.4147 106° East 500 575 37,000 387 Climbing Houston Center
Sun 02:44:31 PM 29.9458 -95.2539 102° East 509 586 37,000  Level Houston Center
Sun 02:45:33 PM 29.9264 -95.0933 98° East 502 578 37,000  Level Houston Center
Sun 02:46:36 PM 29.9042 -94.9328 99° East 502 578 37,000  Level Houston Center
Sun 02:47:38 PM 29.8786 -94.7408 99° East 502 578 37,000  Level Houston Center
Sun 02:48:40 PM 29.8578 -94.5794 98° East 505 581 37,000  Level Houston Center
Sun 02:49:42 PM 29.8358 -94.4178 99° East 510 587 37,000  Level Houston Center
Sun 02:50:44 PM 29.8131 -94.2572 99° East 509 586 37,000  Level Houston Center
Sun 02:51:46 PM 29.7894 -94.0875 99° East 505 581 37,000 -484 Level Houston Center
Sun 02:52:48 PM 29.7683 -93.9325 99° East 497 572 36,000 -919 Descending Houston Center
Sun 02:53:50 PM 29.7461 -93.7739 99° East 504 580 35,100 -1,016 Descending Houston Center
Sun 02:54:52 PM 29.7183 -93.5867 100° East 500 575 33,900 -1,008 Descending Houston Center
Sun 02:55:55 PM 29.6833 -93.4342 105° East 502 578 33,000 -432 Descending Houston Center
Sun 02:56:57 PM 29.6500 -93.2833 104° East 492 566 33,000  Level Houston Center
Sun 02:57:59 PM 29.6169 -93.1339 104° East 489 563 33,000  Level Houston Center
Sun 02:59:01 PM 29.5842 -92.9814 104° East 495 570 33,000  Level Houston Center
Sun 03:00:03 PM 29.5439 -92.7997 104° East 493 567 33,000  Level Houston Center
Sun 03:01:05 PM 29.5094 -92.6467 104° East 497 572 33,000  Level Houston Center
Sun 03:02:07 PM 29.4631 -92.4989 110° East 496 571 33,000  Level Houston Center
Sun 03:03:09 PM 29.4011 -92.3578 117° Southeast 496 571 33,000  Level Houston Center
Sun 03:04:11 PM 29.3400 -92.2175 117° Southeast 495 570 33,000  Level Houston Center
Sun 03:05:14 PM 29.2803 -92.0778 116° Southeast 489 563 33,000  Level Houston Center
Sun 03:06:16 PM 29.2083 -91.9117 116° Southeast 487 560 33,000  Level Houston Center
Sun 03:07:18 PM 29.1500 -91.7725 116° Southeast 486 559 33,000  Level Houston Center
Sun 03:08:20 PM 29.0875 -91.6444 119° Southeast 480 552 33,000  Level Houston Center
Sun 03:09:22 PM 29.0183 -91.5147 121° Southeast 478 550 33,000  Level Houston Center
Sun 03:10:24 PM 28.9497 -91.3850 121° Southeast 480 552 33,000  Level Houston Center
Sun 03:11:26 PM 28.8661 -91.2322 122° Southeast 477 549 33,000  Level Houston Center
Sun 03:12:28 PM 28.7972 -91.1061 122° Southeast 472 543 33,000  Level Houston Center
Sun 03:13:30 PM 28.7233 -90.9819 124° Southeast 472 543 33,000  Level Houston Center
Sun 03:14:33 PM 28.6497 -90.8592 124° Southeast 470 541 33,000  Level Houston Center
Sun 03:15:35 PM 28.5731 -90.7406 126° Southeast 468 539 33,000  Level Houston Center
Sun 03:16:37 PM 28.4800 -90.5947 126° Southeast 475 547 33,000  Level Houston Center
Sun 03:17:39 PM 28.3997 -90.4750 127° Southeast 476 548 33,000  Level Houston Center
Sun 03:18:41 PM 28.3181 -90.3561 128° Southeast 478 550 33,000  Level Houston Center
Sun 03:19:43 PM 28.2336 -90.2419 130° Southeast 475 547 33,000  Level Houston Center
Sun 03:20:45 PM 28.1511 -90.1225 128° Southeast 480 552 33,000  Level Houston Center
Sun 03:21:47 PM 28.0819 -89.9964 122° Southeast 476 548 33,000  Level Houston Center
Sun 03:22:49 PM 28.0539 -89.8144 100° East 490 564 33,000  Level Houston Center
Sun 03:23:51 PM 28.0372 -89.6592 97° East 497 572 33,000  Level Houston Center
Sun 03:24:53 PM 28.0200 -89.5011 97° East 503 579 33,000  Level Houston Center
Sun 03:25:55 PM 28.0025 -89.3436 97° East 505 581 33,000  Level Houston Center
Sun 03:26:57 PM 27.9858 -89.1836 97° East 512 589 33,000  Level Houston Center
Sun 03:27:59 PM 27.9639 -88.9908 97° East 518 596 33,000  Level Houston Center
Sun 03:29:02 PM 27.9453 -88.8364 98° East 506 582 33,000  Level Houston Center
Sun 03:30:04 PM 27.9281 -88.6736 97° East 514 592 33,000  Level Houston Center
Sun 03:31:06 PM 27.9103 -88.5136 97° East 516 594 33,000  Level Houston Center
Sun 03:32:08 PM 27.8906 -88.3533 98° East 516 594 33,000  Level Houston Center
Sun 03:33:10 PM 27.8725 -88.1947 97° East 513 590 33,000 48 Level Houston Center
Sun 03:34:12 PM 27.8500 -88.0047 98° East 521 600 33,100 726 Climbing Houston Center
Sun 03:35:14 PM 27.8306 -87.8425 98° East 523 602 34,500 1,210 Climbing Houston Center
Sun 03:36:16 PM 27.8103 -87.6800 98° East 526 605 35,600 1,016 Climbing Houston Center
Sun 03:37:18 PM 27.7794 -87.5158 102° East 538 619 36,600 955 Climbing Houston Center
Sun 03:37:44 PM 27.7614 -87.4250 103° East 537 618 37,000 279 Climbing Jacksonville Center
Sun 03:38:44 PM 27.7272 -87.2664 104° East 533 613 37,000  Level Jacksonville Center
Sun 03:39:44 PM 27.6911 -87.1056 104° East 519 597 37,000  Level Jacksonville Center
Sun 03:40:44 PM 27.6603 -86.9544 103° East 516 594 37,000  Level Jacksonville Center
Sun 03:41:44 PM 27.6181 -86.7747 105° East 529 609 37,000  Level Jacksonville Center
Sun 03:42:44 PM 27.5850 -86.6192 103° East 521 600 37,000  Level Jacksonville Center
Sun 03:43:44 PM 27.5625 -86.4569 99° East 531 611 37,000  Level Jacksonville Center
Sun 03:44:44 PM 27.5397 -86.2944 99° East 523 602 37,000  Level Jacksonville Center
Sun 03:45:44 PM 27.5211 -86.1256 97° East 528 608 37,000  Level Jacksonville Center
Sun 03:48:07 PM 27.4278 -85.7383 105° East 528 608 37,000  Level Miami Center
Sun 03:49:07 PM 27.3956 -85.5839 103° East 521 600 37,000  Level Miami Center
Sun 03:50:07 PM 27.3444 -85.4283 110° East 521 600 37,000  Level Miami Center
Sun 03:51:07 PM 27.2925 -85.2869 112° Southeast 514 592 37,000  Level Miami Center
Sun 03:52:07 PM 27.2319 -85.1450 116° Southeast 504 580 37,000  Level Miami Center
Sun 03:53:07 PM 27.1650 -85.0028 118° Southeast 499 574 37,000  Level Miami Center
Sun 03:54:07 PM 27.1039 -84.8633 116° Southeast 505 581 37,000  Level Miami Center
Sun 03:55:07 PM 27.0475 -84.7150 113° Southeast 505 581 37,000  Level Miami Center
Sun 03:56:07 PM 27.0167 -84.5522 102° East 511 588 37,000  Level Miami Center
Sun 03:57:07 PM 26.9853 -84.3944 103° East 524 603 37,000  Level Miami Center
Sun 03:58:07 PM 26.9478 -84.2336 105° East 524 603 37,000  Level Miami Center
Sun 03:59:07 PM 26.9139 -84.0758 104° East 524 603 37,000  Level Miami Center
Sun 04:00:07 PM 26.8842 -83.9158 102° East 524 603 37,000  Level Miami Center
Sun 04:01:07 PM 26.8461 -83.7553 105° East 519 597 37,000  Level Miami Center
Sun 04:02:07 PM 26.8117 -83.5997 104° East 519 597 37,000  Level Miami Center
Sun 04:03:07 PM 26.7814 -83.4447 102° East 519 597 37,000 -100 Level Miami Center
Sun 04:04:07 PM 26.7467 -83.2869 104° East 519 597 36,800 -600 Descending Miami Center
Sun 04:05:07 PM 26.7153 -83.1436 104° East 519 597 35,800 -950 Descending Miami Center
Sun 04:06:07 PM 26.6867 -82.9819 101° East 526 605 34,900 -900 Descending Miami Center
Sun 04:07:07 PM 26.6894 -82.8147 89° East 526 605 34,000 -950 Descending Miami Center
Sun 04:08:07 PM 26.6900 -82.6475 90° East 531 611 33,000 -1,100 Descending Miami Center
Sun 04:09:07 PM 26.7192 -82.4886 78° East 463 533 31,800 -1,000 Descending Miami Center
Sun 04:10:07 PM 26.8014 -82.3600 54° Northeast 489 563 31,000 -450 Descending Miami Center
Sun 04:11:07 PM 26.8792 -82.2311 56° Northeast 497 572 30,900 -750 Descending Miami Center
Sun 04:12:07 PM 26.8278 -82.1006 114° Southeast 428 493 29,500 -2,200 Descending Miami Center
Sun 04:13:07 PM 26.7169 -82.0444 156° South 354 407 26,500 -2,750 Descending Miami Center
Sun 04:14:07 PM 26.6022 -81.9883 156° South 388 447 24,000 -1,250 Descending Miami Center
Sun 04:15:07 PM 26.4978 -81.9281 153° Southeast 412 474 24,000  Level Miami Center
Sun 04:16:07 PM 26.4392 -81.8075 118° Southeast 418 481 24,000  Level Miami Center
Sun 04:17:07 PM 26.3936 -81.6781 111° Southeast 434 499 24,000 -750 Level Miami Center
Sun 04:18:07 PM 26.3411 -81.5553 115° Southeast 434 499 22,500 -1,700 Descending Miami Center
Sun 04:19:07 PM 26.2686 -81.4692 133° Southeast 429 494 20,600 -1,900 Descending Miami Center
Sun 04:20:07 PM 26.1669 -81.4536 172° South 357 411 18,700 -2,150 Descending Miami Center
Sun 04:21:07 PM 26.1044 -81.3794 133° Southeast 350 403 16,300 -2,750 Descending Miami Center
Sun 04:22:07 PM 26.1164 -81.2619 84° East 307 353 13,200 -2,500 Descending Miami Center
Sun 04:23:07 PM 26.1136 -81.1464 92° East 340 391 11,300 -1,450 Descending Miami Center
Sun 04:24:07 PM 26.1353 -81.0453 77° East 341 392 10,300 -1,340 Descending Miami Center
Sun 04:24:41 PM 26.1097 -80.9911 118° Southeast 296 341 9,200 -1,500 Descending Miami Center
Sun 04:25:07 PM 26.1044 -80.9586 100° East 302 348 8,800 -764 Descending Miami Center
Sun 04:25:36 PM 26.0847 -80.9142 116° Southeast 276 318 8,500 -400 Descending Miami Center
Sun 04:26:07 PM 26.0792 -80.8839 102° East 282 325 8,400 -441 Descending Miami Center
Sun 04:26:44 PM 26.0889 -80.8378 77° East 224 258 8,000 -800 Descending Miami Center
Sun 04:27:07 PM 26.0978 -80.8172 64° Northeast 226 260 7,600 -1,200 Descending Miami Center
Sun 04:27:39 PM 26.0822 -80.7797 115° Southeast 212 244 6,900 -1,100 Descending Miami Center
Sun 04:28:07 PM 26.0847 -80.7567 83° East 218 251 6,500 -885 Descending Miami Center
Sun 04:28:40 PM 26.0733 -80.7125 106° East 211 243 6,000 -500 Descending Miami Center
Sun 04:29:07 PM 26.0781 -80.6917 76° East 213 245 6,000  Level Miami Center
Sun 04:29:48 PM 26.0772 -80.6478 91° East 186 214 6,000  Level Miami Center
Sun 04:30:07 PM 26.0797 -80.6342 78° East 202 232 6,000  Level Miami Center
Sun 04:30:49 PM 26.0767 -80.5878 94° East 189 217 6,000  Level Miami Center
Sun 04:31:07 PM 26.0792 -80.5739 79° East 191 220 6,000  Level Miami Center
Sun 04:31:50 PM 26.0761 -80.5297 94° East 188 216 6,000 -100 Level Miami Center
Sun 04:32:07 PM 26.0806 -80.5183 67° East 186 214 5,900 -764 Descending Miami Center
Sun 04:32:45 PM 26.0753 -80.4767 98° East 188 216 5,300 -906 Descending Miami Center
Sun 04:33:53 PM 26.0747 -80.4142 91° East 178 205 4,300 -930 Descending Miami Center
Sun 04:34:54 PM 26.0742 -80.3564 91° East 181 208 3,300 -934 Descending Miami Center
Sun 04:35:55 PM 26.0753 -80.3008 89° East 179 206 2,400 -934 Descending Miami Center
Sun 04:36:56 PM 26.0744 -80.2478 91° East 171 197 1,400 -885 Descending Miami Center
Sun 04:37:57 PM 26.0736 -80.1992 91° East 133 153 600 -787 Descending Miami Center
Sun 04:39:00 PM 26.0667 -80.1500 180° South  Level FlightAware
Sun 04:46:00 PM 26.0726 -80.1527 180° South  Level Estimated

Login

Don't have an account? Register now (free) for customized features, flight alerts, and more!